createdAt,value
2022-11-05T00:00:38.913Z,100403.09
2022-11-05T00:03:25.626Z,100400.00
2022-11-05T00:06:12.754Z,100405.56
2022-11-05T00:09:00.477Z,100410.41
2022-11-05T00:11:48.881Z,100400.53
2022-11-05T00:14:35.173Z,100412.84
2022-11-05T00:17:02.970Z,100416.31
2022-11-05T00:19:30.650Z,100423.78
2022-11-05T00:22:16.743Z,100413.56
2022-11-05T00:25:06.083Z,100421.38
2022-11-05T00:27:34.269Z,100425.47
2022-11-05T00:30:07.631Z,100424.66
2022-11-05T00:32:37.641Z,100423.19
2022-11-05T00:35:07.319Z,100431.69
2022-11-05T00:37:35.903Z,100434.97
2022-11-05T00:40:07.791Z,100431.34
2022-11-05T00:42:54.003Z,100430.31
2022-11-05T00:45:21.712Z,100431.25
2022-11-05T00:48:08.435Z,100438.97
2022-11-05T00:50:36.336Z,100438.38
2022-11-05T00:53:04.660Z,100434.97
2022-11-05T00:55:38.049Z,100434.13
2022-11-05T00:58:08.952Z,100434.66
2022-11-05T01:00:39.358Z,100434.66
2022-11-05T01:03:10.844Z,100441.47
2022-11-05T01:05:42.516Z,100440.97
2022-11-05T01:08:10.413Z,100445.28
2022-11-05T01:10:42.481Z,100442.31
2022-11-05T01:13:13.378Z,100435.16
2022-11-05T01:15:42.338Z,100447.06
2022-11-05T01:18:10.322Z,100437.56
2022-11-05T01:20:38.457Z,100440.78
2022-11-05T01:23:10.397Z,100447.44
2022-11-05T01:25:43.310Z,100445.69
2022-11-05T01:28:11.235Z,100436.38
2022-11-05T01:30:39.182Z,100447.59
2022-11-05T01:33:07.370Z,100446.63
2022-11-05T01:35:35.169Z,100453.31
2022-11-05T01:38:02.919Z,100457.09
2022-11-05T01:40:30.805Z,100463.66
2022-11-05T01:43:00.016Z,100458.41
2022-11-05T01:45:28.653Z,100464.44
2022-11-05T01:48:05.551Z,100465.28
2022-11-05T01:50:47.200Z,100470.69
2022-11-05T01:53:25.897Z,100464.84
2022-11-05T01:56:01.228Z,100470.03
2022-11-05T01:58:34.605Z,100470.03
2022-11-05T02:01:02.529Z,100472.19
2022-11-05T02:03:31.791Z,100471.09
2022-11-05T02:06:02.652Z,100476.91
2022-11-05T02:08:57.075Z,100477.88
2022-11-05T02:11:25.155Z,100476.91
2022-11-05T02:13:54.479Z,100483.94
2022-11-05T02:16:37.681Z,100488.28
2022-11-05T02:19:42.618Z,100480.41
2022-11-05T02:22:58.654Z,100489.34
2022-11-05T02:26:07.800Z,100485.09
2022-11-05T02:29:26.605Z,100495.47
2022-11-05T02:32:10.246Z,100502.16
2022-11-05T02:34:55.528Z,100499.41
2022-11-05T02:37:39.122Z,100503.50
2022-11-05T02:40:17.784Z,100503.94
2022-11-05T02:42:58.534Z,100515.00
2022-11-05T02:45:41.651Z,100500.66
2022-11-05T02:48:23.203Z,100498.22
2022-11-05T02:51:03.045Z,100494.00
2022-11-05T02:53:43.409Z,100500.03
2022-11-05T02:56:20.761Z,100499.16
2022-11-05T02:58:48.478Z,100495.66
2022-11-05T03:01:16.573Z,100493.66
2022-11-05T03:03:49.670Z,100502.84
2022-11-05T03:06:56.129Z,100500.75
2022-11-05T03:10:10.749Z,100497.94
2022-11-05T03:12:53.419Z,100495.81
2022-11-05T03:15:39.452Z,100507.63
2022-11-05T03:18:14.924Z,100499.44
2022-11-05T03:20:52.018Z,100498.19
2022-11-05T03:23:29.176Z,100501.28
2022-11-05T03:26:12.408Z,100501.47
2022-11-05T03:28:46.187Z,100500.75
2022-11-05T03:31:17.660Z,100498.00
2022-11-05T03:33:48.104Z,100501.22
2022-11-05T03:36:23.240Z,100503.09
2022-11-05T03:38:57.030Z,100503.09
2022-11-05T03:41:27.001Z,100502.72
2022-11-05T03:43:58.987Z,100500.19
2022-11-05T03:46:33.087Z,100500.84
2022-11-05T03:49:05.749Z,100508.91
2022-11-05T03:51:45.936Z,100515.78
2022-11-05T03:54:14.696Z,100510.09
2022-11-05T03:56:54.815Z,100508.25
2022-11-05T03:59:23.933Z,100509.00
2022-11-05T04:01:51.928Z,100511.94
2022-11-05T04:04:19.939Z,100512.72
2022-11-05T04:07:07.868Z,100512.69
2022-11-05T04:09:54.360Z,100517.75
2022-11-05T04:12:40.695Z,100511.59
2022-11-05T04:15:08.948Z,100515.44
2022-11-05T04:17:36.767Z,100519.13
2022-11-05T04:20:24.320Z,100529.97
2022-11-05T04:23:19.357Z,100523.31
2022-11-05T04:25:47.515Z,100528.31
2022-11-05T04:28:15.519Z,100529.97
2022-11-05T04:30:44.453Z,100529.97
2022-11-05T04:33:15.386Z,100535.41
2022-11-05T04:35:46.233Z,100539.00
2022-11-05T04:38:18.824Z,100545.06
2022-11-05T04:40:48.197Z,100549.44
2022-11-05T04:43:19.450Z,100550.53
2022-11-05T04:45:47.446Z,100551.44
2022-11-05T04:48:15.229Z,100555.34
2022-11-05T04:50:43.015Z,100558.84
2022-11-05T04:53:11.037Z,100564.13
2022-11-05T04:55:40.457Z,100554.81
2022-11-05T04:58:09.368Z,100550.50
2022-11-05T05:00:37.245Z,100546.97
2022-11-05T05:03:05.158Z,100549.31
2022-11-05T05:05:33.049Z,100550.19
2022-11-05T05:08:01.678Z,100548.19
2022-11-05T05:10:29.483Z,100550.41
2022-11-05T05:12:58.566Z,100550.66
2022-11-05T05:15:26.299Z,100553.84
2022-11-05T05:17:54.165Z,100565.25
2022-11-05T05:20:40.875Z,100564.75
2022-11-05T05:23:08.898Z,100556.09
2022-11-05T05:25:36.941Z,100573.84
2022-11-05T05:28:06.166Z,100569.44
2022-11-05T05:30:34.312Z,100572.81
2022-11-05T05:33:03.784Z,100567.50
2022-11-05T05:35:31.626Z,100582.78
2022-11-05T05:37:59.693Z,100582.63
2022-11-05T05:40:27.524Z,100578.94
2022-11-05T05:42:55.771Z,100584.81
2022-11-05T05:45:24.828Z,100589.06
2022-11-05T05:47:55.362Z,100592.56
2022-11-05T05:50:23.139Z,100586.66
2022-11-05T05:52:53.387Z,100585.41
2022-11-05T05:55:21.251Z,100590.53
2022-11-05T05:57:49.683Z,100590.38
2022-11-05T06:00:18.442Z,100595.53
2022-11-05T06:02:47.644Z,100599.59
2022-11-05T06:05:15.817Z,100608.03
2022-11-05T06:07:43.564Z,100604.72
2022-11-05T06:10:11.503Z,100615.72
2022-11-05T06:12:39.367Z,100610.59
2022-11-05T06:15:08.210Z,100614.94
2022-11-05T06:17:36.004Z,100617.22
2022-11-05T06:20:08.399Z,100625.69
2022-11-05T06:22:36.306Z,100625.78
2022-11-05T06:25:05.678Z,100623.94
2022-11-05T06:27:33.878Z,100622.84
2022-11-05T06:30:01.829Z,100626.28
2022-11-05T06:32:31.087Z,100628.50
2022-11-05T06:34:58.978Z,100639.03
2022-11-05T06:37:28.144Z,100634.63
2022-11-05T06:39:57.100Z,100642.47
2022-11-05T06:42:24.859Z,100639.19
2022-11-05T06:44:52.945Z,100643.34
2022-11-05T06:47:20.879Z,100642.91
2022-11-05T06:49:48.739Z,100650.97
2022-11-05T06:52:17.389Z,100644.66
2022-11-05T06:54:46.499Z,100650.59
2022-11-05T06:57:15.314Z,100653.31
2022-11-05T06:59:43.103Z,100655.78
2022-11-05T07:02:13.480Z,100655.22
2022-11-05T07:04:41.457Z,100661.66
2022-11-05T07:07:09.575Z,100665.19
2022-11-05T07:09:42.965Z,100665.91
2022-11-05T07:12:12.046Z,100673.84
2022-11-05T07:14:39.883Z,100672.22
2022-11-05T07:17:07.714Z,100682.84
2022-11-05T07:19:35.515Z,100676.31
2022-11-05T07:22:03.510Z,100680.28
2022-11-05T07:24:31.179Z,100685.59
2022-11-05T07:26:58.955Z,100692.41
2022-11-05T07:29:28.011Z,100692.75
2022-11-05T07:31:55.831Z,100692.91
2022-11-05T07:34:23.528Z,100700.94
2022-11-05T07:36:51.647Z,100700.41
2022-11-05T07:39:19.678Z,100694.56
2022-11-05T07:41:47.425Z,100692.94
2022-11-05T07:44:17.506Z,100699.84
2022-11-05T07:46:46.750Z,100703.66
2022-11-05T07:49:14.496Z,100699.72
2022-11-05T07:51:42.498Z,100696.03
2022-11-05T07:54:10.681Z,100695.53
2022-11-05T07:56:38.467Z,100697.38
2022-11-05T07:59:06.691Z,100708.38
2022-11-05T08:01:34.710Z,100698.53
2022-11-05T08:04:04.544Z,100696.66
2022-11-05T08:06:32.403Z,100691.28
2022-11-05T08:09:00.274Z,100696.53
2022-11-05T08:11:28.070Z,100702.94
2022-11-05T08:13:55.898Z,100696.56
2022-11-05T08:16:23.665Z,100707.22
2022-11-05T08:18:51.660Z,100708.06
2022-11-05T08:21:20.802Z,100706.22
2022-11-05T08:23:48.538Z,100705.47
2022-11-05T08:26:16.336Z,100705.88
2022-11-05T08:28:44.206Z,100708.00
2022-11-05T08:31:14.223Z,100708.41
2022-11-05T08:33:42.213Z,100705.09
2022-11-05T08:36:09.943Z,100707.00
2022-11-05T08:38:38.945Z,100715.47
2022-11-05T08:41:06.747Z,100725.38
2022-11-05T08:43:34.522Z,100710.41
2022-11-05T08:46:02.773Z,100714.19
2022-11-05T08:48:30.559Z,100719.91
2022-11-05T08:51:00.860Z,100720.00
2022-11-05T08:53:28.653Z,100723.66
2022-11-05T08:55:59.507Z,100722.59
2022-11-05T08:58:28.264Z,100715.31
2022-11-05T09:00:58.974Z,100726.69
2022-11-05T09:03:29.642Z,100731.41
2022-11-05T09:05:57.472Z,100730.31
2022-11-05T09:08:25.374Z,100720.97
2022-11-05T09:10:53.098Z,100725.97
2022-11-05T09:13:22.910Z,100723.13
2022-11-05T09:15:51.773Z,100720.69
2022-11-05T09:18:20.873Z,100731.47
2022-11-05T09:20:48.817Z,100731.81
2022-11-05T09:23:17.074Z,100724.94
2022-11-05T09:25:45.185Z,100729.41
2022-11-05T09:28:17.345Z,100731.34
2022-11-05T09:30:50.023Z,100723.16
2022-11-05T09:33:19.929Z,100730.38
2022-11-05T09:35:48.115Z,100733.75
2022-11-05T09:38:16.269Z,100721.34
2022-11-05T09:40:59.545Z,100727.91
2022-11-05T09:43:35.127Z,100731.13
2022-11-05T09:46:12.541Z,100732.56
2022-11-05T09:48:42.431Z,100730.25
2022-11-05T09:51:19.286Z,100730.06
2022-11-05T09:53:51.022Z,100734.72
2022-11-05T09:56:24.984Z,100731.13
2022-11-05T09:58:59.982Z,100734.66
2022-11-05T10:01:35.289Z,100732.19
2022-11-05T10:04:13.059Z,100729.00
2022-11-05T10:06:49.156Z,100733.22
2022-11-05T10:09:25.210Z,100726.41
2022-11-05T10:12:00.302Z,100720.78
2022-11-05T10:14:33.762Z,100715.28
2022-11-05T10:17:12.718Z,100715.44
2022-11-05T10:19:47.778Z,100720.28
2022-11-05T10:22:19.466Z,100717.25
2022-11-05T10:24:52.072Z,100711.59
2022-11-05T10:27:25.147Z,100715.84
2022-11-05T10:29:53.335Z,100728.78
2022-11-05T10:32:30.666Z,100729.75
2022-11-05T10:35:02.557Z,100719.63
2022-11-05T10:37:35.841Z,100709.69
2022-11-05T10:40:20.076Z,100716.75
2022-11-05T10:43:03.527Z,100716.91
2022-11-05T10:45:55.307Z,100715.28
2022-11-05T10:48:52.739Z,100715.53
2022-11-05T10:51:20.682Z,100719.31
2022-11-05T10:54:00.518Z,100712.56
2022-11-05T10:56:35.451Z,100721.28
2022-11-05T10:59:11.809Z,100716.19
2022-11-05T11:01:40.416Z,100721.44
2022-11-05T11:04:20.188Z,100716.28
2022-11-05T11:06:51.598Z,100724.84
2022-11-05T11:09:24.806Z,100730.53
2022-11-05T11:12:18.837Z,100730.47
2022-11-05T11:15:01.095Z,100728.97
2022-11-05T11:17:32.281Z,100719.81
2022-11-05T11:20:25.845Z,100723.38
2022-11-05T11:23:05.166Z,100722.50
2022-11-05T11:25:44.622Z,100714.97
2022-11-05T11:28:21.821Z,100718.13
2022-11-05T11:30:57.396Z,100716.56
2022-11-05T11:33:28.453Z,100712.97
2022-11-05T11:35:58.272Z,100717.97
2022-11-05T11:38:31.203Z,100718.56
2022-11-05T11:41:22.768Z,100723.63
2022-11-05T11:43:59.479Z,100724.28
2022-11-05T11:46:34.088Z,100727.47
2022-11-05T11:49:02.528Z,100728.13
2022-11-05T11:51:36.674Z,100736.75
2022-11-05T11:54:05.343Z,100733.63
2022-11-05T11:56:45.181Z,100729.78
2022-11-05T11:59:40.435Z,100722.91
2022-11-05T12:02:46.193Z,100726.13
2022-11-05T12:05:34.713Z,100722.75
2022-11-05T12:08:23.872Z,100722.06
2022-11-05T12:11:04.176Z,100725.59
2022-11-05T12:13:56.852Z,100725.78
2022-11-05T12:16:50.501Z,100727.59
2022-11-05T12:19:40.379Z,100722.31
2022-11-05T12:22:22.052Z,100726.03
2022-11-05T12:25:17.557Z,100729.31
2022-11-05T12:28:14.183Z,100728.38
2022-11-05T12:30:55.823Z,100732.06
2022-11-05T12:33:38.376Z,100723.47
2022-11-05T12:36:25.953Z,100730.44
2022-11-05T12:39:19.230Z,100728.78
2022-11-05T12:41:58.720Z,100728.88
2022-11-05T12:45:00.317Z,100730.53
2022-11-05T12:47:53.320Z,100726.19
2022-11-05T12:50:33.915Z,100733.81
2022-11-05T12:53:40.765Z,100735.59
2022-11-05T12:56:17.024Z,100719.94
2022-11-05T12:58:53.827Z,100723.38
2022-11-05T13:01:31.860Z,100718.03
2022-11-05T13:04:08.680Z,100716.13
2022-11-05T13:06:41.778Z,100714.28
2022-11-05T13:09:17.818Z,100707.28
2022-11-05T13:11:53.453Z,100698.72
2022-11-05T13:14:29.112Z,100696.88
2022-11-05T13:17:02.263Z,100695.88
2022-11-05T13:19:37.364Z,100700.19
2022-11-05T13:22:29.107Z,100691.50
2022-11-05T13:25:05.031Z,100695.06
2022-11-05T13:27:51.990Z,100699.38
2022-11-05T13:30:25.043Z,100703.94
2022-11-05T13:33:01.827Z,100696.88
2022-11-05T13:35:36.109Z,100697.69
2022-11-05T13:38:27.620Z,100697.00
2022-11-05T13:41:18.290Z,100688.41
2022-11-05T13:44:24.074Z,100690.84
2022-11-05T13:47:19.475Z,100684.84
2022-11-05T13:50:13.396Z,100684.72
2022-11-05T13:53:06.080Z,100685.69
2022-11-05T13:55:56.541Z,100686.47
2022-11-05T13:59:00.520Z,100684.84
2022-11-05T14:01:44.873Z,100689.31
2022-11-05T14:04:30.126Z,100669.66
2022-11-05T14:07:09.180Z,100674.66
2022-11-05T14:09:39.579Z,100672.25
2022-11-05T14:12:23.426Z,100675.84
2022-11-05T14:15:00.153Z,100675.88
2022-11-05T14:17:33.959Z,100668.69
2022-11-05T14:20:42.287Z,100677.97
2022-11-05T14:23:50.398Z,100671.34
2022-11-05T14:26:23.192Z,100669.50
2022-11-05T14:29:23.000Z,100675.16
2022-11-05T14:32:13.071Z,100663.69
2022-11-05T14:34:53.355Z,100667.06
2022-11-05T14:37:30.116Z,100671.94
2022-11-05T14:40:29.511Z,100678.78
2022-11-05T14:43:02.662Z,100673.34
2022-11-05T14:45:35.082Z,100674.63
2022-11-05T14:48:23.331Z,100674.59
2022-11-05T14:50:51.741Z,100672.97
2022-11-05T14:53:34.666Z,100669.31
2022-11-05T14:56:08.483Z,100663.81
2022-11-05T14:58:38.846Z,100666.19
2022-11-05T15:01:09.626Z,100661.50
2022-11-05T15:04:16.245Z,100666.88
2022-11-05T15:07:32.010Z,100664.03
2022-11-05T15:10:10.489Z,100660.44
2022-11-05T15:12:45.595Z,100656.59
2022-11-05T15:15:22.708Z,100657.38
2022-11-05T15:18:02.765Z,100665.19
2022-11-05T15:20:40.343Z,100666.97
2022-11-05T15:23:15.525Z,100677.25
2022-11-05T15:25:53.439Z,100667.84
2022-11-05T15:28:34.020Z,100659.81
2022-11-05T15:31:05.022Z,100663.34
2022-11-05T15:33:33.372Z,100663.28
2022-11-05T15:36:27.760Z,100664.78
2022-11-05T15:39:27.346Z,100671.69
2022-11-05T15:41:47.149Z,100677.56
2022-11-05T15:44:29.401Z,100675.69
2022-11-05T15:47:13.608Z,100673.63
2022-11-05T15:49:44.335Z,100676.31
2022-11-05T15:52:15.241Z,100664.97
2022-11-05T15:54:44.155Z,100673.38
2022-11-05T15:57:29.153Z,100669.97
2022-11-05T15:59:57.208Z,100685.47
2022-11-05T16:02:33.429Z,100687.78
2022-11-05T16:05:09.606Z,100690.31
2022-11-05T16:07:42.684Z,100693.00
2022-11-05T16:10:20.612Z,100689.69
2022-11-05T16:12:50.163Z,100689.59
2022-11-05T16:15:23.144Z,100686.09
2022-11-05T16:17:55.208Z,100688.44
2022-11-05T16:20:29.573Z,100687.53
2022-11-05T16:23:01.256Z,100690.72
2022-11-05T16:25:37.960Z,100684.53
2022-11-05T16:28:22.285Z,100677.22
2022-11-05T16:30:56.680Z,100683.09
2022-11-05T16:33:27.653Z,100680.41
2022-11-05T16:35:55.538Z,100688.16
2022-11-05T16:38:24.274Z,100678.56
2022-11-05T16:40:52.273Z,100683.16
2022-11-05T16:43:24.627Z,100686.63
2022-11-05T16:45:55.341Z,100678.84
2022-11-05T16:48:23.358Z,100679.63
2022-11-05T16:50:51.914Z,100674.97
2022-11-05T16:53:19.955Z,100668.34
2022-11-05T16:55:48.003Z,100668.34
2022-11-05T16:58:22.518Z,100674.31
2022-11-05T17:00:54.599Z,100675.16
2022-11-05T17:03:22.411Z,100680.34
2022-11-05T17:05:50.111Z,100672.59
2022-11-05T17:08:18.056Z,100676.75
2022-11-05T17:10:46.014Z,100683.66
2022-11-05T17:13:16.811Z,100681.88
2022-11-05T17:15:49.553Z,100683.75
2022-11-05T17:18:19.073Z,100682.16
2022-11-05T17:20:50.765Z,100683.03
2022-11-05T17:23:21.411Z,100670.84
2022-11-05T17:25:53.590Z,100678.56
2022-11-05T17:28:21.958Z,100678.50
2022-11-05T17:30:54.128Z,100671.47
2022-11-05T17:33:23.389Z,100673.06
2022-11-05T17:35:52.588Z,100664.34
2022-11-05T17:38:22.417Z,100670.16
2022-11-05T17:40:50.770Z,100669.38
2022-11-05T17:43:20.133Z,100667.59
2022-11-05T17:45:58.620Z,100676.38
2022-11-05T17:48:29.452Z,100671.22
2022-11-05T17:50:57.251Z,100674.66
2022-11-05T17:53:25.357Z,100675.38
2022-11-05T17:55:53.282Z,100668.66
2022-11-05T17:58:21.118Z,100664.22
2022-11-05T18:00:49.201Z,100665.84
2022-11-05T18:03:18.294Z,100669.59
2022-11-05T18:05:46.262Z,100664.44
2022-11-05T18:08:14.101Z,100668.38
2022-11-05T18:10:42.742Z,100674.72
2022-11-05T18:13:11.636Z,100673.09
2022-11-05T18:15:41.031Z,100662.69
2022-11-05T18:18:09.628Z,100678.16
2022-11-05T18:20:39.172Z,100671.03
2022-11-05T18:23:07.047Z,100667.72
2022-11-05T18:25:34.927Z,100676.22
2022-11-05T18:28:03.460Z,100671.03
2022-11-05T18:30:31.326Z,100664.84
2022-11-05T18:32:59.203Z,100664.91
2022-11-05T18:35:27.013Z,100671.13
2022-11-05T18:37:56.341Z,100664.19
2022-11-05T18:40:24.236Z,100666.09
2022-11-05T18:42:52.243Z,100659.00
2022-11-05T18:45:21.036Z,100659.09
2022-11-05T18:47:51.132Z,100659.25
2022-11-05T18:50:19.100Z,100652.47
2022-11-05T18:52:46.864Z,100647.59
2022-11-05T18:55:16.026Z,100645.72
2022-11-05T18:57:43.871Z,100636.72
2022-11-05T19:00:14.464Z,100645.50
2022-11-05T19:02:42.356Z,100641.19
2022-11-05T19:07:58.843Z,100650.03
2022-11-05T19:10:28.346Z,100651.06
2022-11-05T19:12:56.415Z,100645.00
2022-11-05T19:15:24.174Z,100646.63
2022-11-05T19:17:51.932Z,100653.84
2022-11-05T19:20:19.777Z,100654.72
2022-11-05T19:22:47.651Z,100657.41
2022-11-05T19:25:15.495Z,100660.13
2022-11-05T19:27:45.275Z,100659.19
2022-11-05T19:30:13.240Z,100652.19
2022-11-05T19:32:41.086Z,100662.34
2022-11-05T19:35:09.436Z,100666.75
2022-11-05T19:37:37.297Z,100659.91
2022-11-05T19:40:06.987Z,100661.56
2022-11-05T19:42:34.838Z,100654.88
2022-11-05T19:45:30.321Z,100650.38
2022-11-05T19:47:52.860Z,100642.34
2022-11-05T19:50:20.604Z,100637.78
2022-11-05T19:52:48.588Z,100634.19
2022-11-05T19:55:16.248Z,100632.53
2022-11-05T19:57:44.829Z,100643.47
2022-11-05T20:00:15.300Z,100636.69
2022-11-05T20:02:45.152Z,100644.19
2022-11-05T20:05:13.645Z,100641.44
2022-11-05T20:07:41.425Z,100643.31
2022-11-05T20:10:10.772Z,100651.25
2022-11-05T20:12:39.062Z,100652.97
2022-11-05T20:15:08.228Z,100659.16
2022-11-05T20:17:39.324Z,100652.16
2022-11-05T20:20:08.809Z,100652.25
2022-11-05T20:22:36.671Z,100650.66
2022-11-05T20:25:06.075Z,100659.53
2022-11-05T20:27:33.940Z,100655.94
2022-11-05T20:30:01.903Z,100647.88
2022-11-05T20:32:29.778Z,100646.97
2022-11-05T20:34:58.835Z,100647.88
2022-11-05T20:37:26.562Z,100641.78
2022-11-05T20:39:54.395Z,100639.78
2022-11-05T20:42:22.359Z,100645.28
2022-11-05T20:44:50.255Z,100647.97
2022-11-05T20:47:18.025Z,100655.72
2022-11-05T20:49:45.844Z,100648.59
2022-11-05T20:52:17.049Z,100646.13
2022-11-05T20:54:44.819Z,100653.13
2022-11-05T20:57:12.720Z,100648.56
2022-11-05T20:59:40.468Z,100649.59
2022-11-05T21:02:09.738Z,100655.56
2022-11-05T21:04:39.019Z,100643.63
2022-11-05T21:07:06.934Z,100645.97
2022-11-05T21:09:36.073Z,100640.81
2022-11-05T21:12:10.035Z,100640.59
2022-11-05T21:14:38.582Z,100642.44
2022-11-05T21:17:08.810Z,100646.72
2022-11-05T21:19:36.979Z,100639.78
2022-11-05T21:22:06.277Z,100639.94
2022-11-05T21:24:35.950Z,100632.09
2022-11-05T21:27:04.020Z,100622.66
2022-11-05T21:29:31.878Z,100625.97
2022-11-05T21:31:59.605Z,100631.31
2022-11-05T21:34:28.116Z,100624.41
2022-11-05T21:36:55.915Z,100623.66
2022-11-05T21:39:23.757Z,100621.94
2022-11-05T21:41:53.032Z,100624.56
2022-11-05T21:44:21.205Z,100622.88
2022-11-05T21:46:48.951Z,100621.28
2022-11-05T21:49:16.835Z,100626.47
2022-11-05T21:52:03.452Z,100623.13
2022-11-05T21:54:49.850Z,100622.88
2022-11-05T21:57:38.045Z,100633.41
2022-11-05T22:00:11.055Z,100628.41
2022-11-05T22:02:38.920Z,100637.13
2022-11-05T22:05:08.158Z,100635.25
2022-11-05T22:07:38.871Z,100637.00
2022-11-05T22:10:15.594Z,100633.81
2022-11-05T22:12:46.117Z,100628.56
2022-11-05T22:15:14.431Z,100615.53
2022-11-05T22:17:46.588Z,100609.41
2022-11-05T22:20:16.069Z,100607.47
2022-11-05T22:22:44.691Z,100609.34
2022-11-05T22:25:13.395Z,100599.03
2022-11-05T22:27:41.257Z,100594.66
2022-11-05T22:30:13.265Z,100599.03
2022-11-05T22:32:41.272Z,100600.00
2022-11-05T22:35:09.828Z,100601.72
2022-11-05T22:37:37.761Z,100595.53
2022-11-05T22:40:07.010Z,100593.94
2022-11-05T22:42:34.801Z,100600.78
2022-11-05T22:45:02.718Z,100594.22
2022-11-05T22:47:31.959Z,100601.78
2022-11-05T22:49:59.759Z,100594.22
2022-11-05T22:52:27.554Z,100585.56
2022-11-05T22:54:55.272Z,100599.34
2022-11-05T22:57:23.075Z,100598.31
2022-11-05T22:59:50.910Z,100594.00
2022-11-05T23:02:18.767Z,100590.50
2022-11-05T23:04:49.451Z,100589.34
2022-11-05T23:07:36.625Z,100585.38
2022-11-05T23:10:23.522Z,100588.66
2022-11-05T23:12:53.064Z,100584.41
2022-11-05T23:15:39.391Z,100584.44
2022-11-05T23:18:28.226Z,100581.13
2022-11-05T23:21:20.462Z,100584.34
2022-11-05T23:24:05.899Z,100586.81
2022-11-05T23:26:51.058Z,100581.63
2022-11-05T23:29:21.464Z,100564.25
2022-11-05T23:32:08.098Z,100562.59
2022-11-05T23:34:36.465Z,100548.84
2022-11-05T23:37:24.607Z,100557.16
2022-11-05T23:39:52.669Z,100544.53
2022-11-05T23:42:39.932Z,100546.88
2022-11-05T23:45:27.961Z,100545.53
2022-11-05T23:48:15.456Z,100543.88
2022-11-05T23:50:49.254Z,100545.88
2022-11-05T23:53:19.233Z,100539.63
2022-11-05T23:55:47.626Z,100548.19
2022-11-05T23:58:16.912Z,100540.59
